sensor_id;sensor_type;location;lat;lon;timestamp;pressure;altitude;pressure_sealevel;temperature;humidity
8101;BME280;4093;53.470;9.832;2022-08-11T00:00:57;102510.41;;;22.57;64.39
8101;BME280;4093;53.470;9.832;2022-08-11T00:03:24;102549.88;;;22.82;64.51
8101;BME280;4093;53.470;9.832;2022-08-11T00:05:53;102541.97;;;22.82;64.11
8101;BME280;4093;53.470;9.832;2022-08-11T00:08:22;102529.13;;;22.73;63.52
8101;BME280;4093;53.470;9.832;2022-08-11T00:10:56;102527.66;;;22.66;64.26
8101;BME280;4093;53.470;9.832;2022-08-11T00:13:31;102520.78;;;22.62;64.36
8101;BME280;4093;53.470;9.832;2022-08-11T00:15:58;102499.63;;;22.42;64.31
8101;BME280;4093;53.470;9.832;2022-08-11T00:18:26;102503.56;;;22.30;64.30
8101;BME280;4093;53.470;9.832;2022-08-11T00:20:57;102517.44;;;22.35;64.01
8101;BME280;4093;53.470;9.832;2022-08-11T00:23:25;102527.16;;;22.34;64.70
8101;BME280;4093;53.470;9.832;2022-08-11T00:25:54;102525.34;;;22.35;63.93
8101;BME280;4093;53.470;9.832;2022-08-11T00:28:26;102517.72;;;22.27;65.34
8101;BME280;4093;53.470;9.832;2022-08-11T00:30:55;102518.66;;;22.26;65.44
8101;BME280;4093;53.470;9.832;2022-08-11T00:33:25;102517.28;;;22.16;65.42
8101;BME280;4093;53.470;9.832;2022-08-11T00:35:58;102508.19;;;22.00;66.12
8101;BME280;4093;53.470;9.832;2022-08-11T00:38:29;102520.47;;;22.01;66.09
8101;BME280;4093;53.470;9.832;2022-08-11T00:41:06;102515.31;;;21.98;65.45
8101;BME280;4093;53.470;9.832;2022-08-11T00:43:48;102516.56;;;21.87;66.41
8101;BME280;4093;53.470;9.832;2022-08-11T00:46:25;102526.06;;;21.91;66.59
8101;BME280;4093;53.470;9.832;2022-08-11T00:49:04;102518.75;;;21.75;66.93
8101;BME280;4093;53.470;9.832;2022-08-11T00:51:55;102501.84;;;21.57;67.10
8101;BME280;4093;53.470;9.832;2022-08-11T00:54:44;102501.63;;;21.38;67.55
8101;BME280;4093;53.470;9.832;2022-08-11T01:00:18;102531.38;;;21.40;67.72
8101;BME280;4093;53.470;9.832;2022-08-11T01:03:09;102517.16;;;21.19;68.70
8101;BME280;4093;53.470;9.832;2022-08-11T01:06:20;102534.97;;;21.11;68.43
8101;BME280;4093;53.470;9.832;2022-08-11T01:12:04;102562.28;;;21.33;67.76
8101;BME280;4093;53.470;9.832;2022-08-11T01:18:20;102545.28;;;21.17;68.34
8101;BME280;4093;53.470;9.832;2022-08-11T01:21:11;102522.47;;;20.63;70.24
8101;BME280;4093;53.470;9.832;2022-08-11T01:27:12;102502.44;;;20.29;72.06
8101;BME280;4093;53.470;9.832;2022-08-11T01:30:27;102558.78;;;20.48;71.17
8101;BME280;4093;53.470;9.832;2022-08-11T01:36:31;102558.53;;;20.28;72.44
8101;BME280;4093;53.470;9.832;2022-08-11T01:39:39;102539.97;;;20.03;73.28
8101;BME280;4093;53.470;9.832;2022-08-11T01:42:39;102525.88;;;19.74;73.60
8101;BME280;4093;53.470;9.832;2022-08-11T01:45:36;102537.63;;;19.58;74.53
8101;BME280;4093;53.470;9.832;2022-08-11T01:48:14;102580.59;;;19.90;73.28
8101;BME280;4093;53.470;9.832;2022-08-11T01:51:00;102598.34;;;20.13;71.52
8101;BME280;4093;53.470;9.832;2022-08-11T01:53:42;102532.84;;;19.41;75.15
8101;BME280;4093;53.470;9.832;2022-08-11T01:56:22;102593.38;;;19.69;74.51
8101;BME280;4093;53.470;9.832;2022-08-11T01:59:08;102593.16;;;19.77;73.37
8101;BME280;4093;53.470;9.832;2022-08-11T02:01:44;102587.84;;;19.80;73.04
8101;BME280;4093;53.470;9.832;2022-08-11T02:04:23;102603.03;;;20.01;72.14
8101;BME280;4093;53.470;9.832;2022-08-11T02:06:55;102575.84;;;19.71;73.98
8101;BME280;4093;53.470;9.832;2022-08-11T02:09:44;102579.16;;;19.78;73.25
8101;BME280;4093;53.470;9.832;2022-08-11T02:12:31;102592.84;;;19.89;72.29
8101;BME280;4093;53.470;9.832;2022-08-11T02:15:10;102595.13;;;20.03;71.16
8101;BME280;4093;53.470;9.832;2022-08-11T02:17:47;102580.75;;;19.83;72.96
8101;BME280;4093;53.470;9.832;2022-08-11T02:20:19;102577.25;;;19.83;72.71
8101;BME280;4093;53.470;9.832;2022-08-11T02:23:16;102528.28;;;19.13;75.64
8101;BME280;4093;53.470;9.832;2022-08-11T02:26:15;102577.13;;;19.53;74.49
8101;BME280;4093;53.470;9.832;2022-08-11T02:28:52;102590.00;;;19.64;73.70
8101;BME280;4093;53.470;9.832;2022-08-11T02:31:26;102541.38;;;19.15;75.00
8101;BME280;4093;53.470;9.832;2022-08-11T02:34:22;102545.22;;;18.99;76.88
8101;BME280;4093;53.470;9.832;2022-08-11T02:37:09;102574.72;;;19.08;76.43
8101;BME280;4093;53.470;9.832;2022-08-11T02:39:46;102590.22;;;19.19;74.79
8101;BME280;4093;53.470;9.832;2022-08-11T02:42:23;102587.31;;;19.30;74.04
8101;BME280;4093;53.470;9.832;2022-08-11T02:45:03;102490.72;;;18.35;78.07
8101;BME280;4093;53.470;9.832;2022-08-11T02:47:40;102554.19;;;18.48;79.27
8101;BME280;4093;53.470;9.832;2022-08-11T02:50:37;102613.47;;;18.95;77.03
8101;BME280;4093;53.470;9.832;2022-08-11T02:53:10;102636.06;;;19.40;74.44
8101;BME280;4093;53.470;9.832;2022-08-11T02:55:46;102576.53;;;19.06;74.72
8101;BME280;4093;53.470;9.832;2022-08-11T02:58:30;102606.41;;;19.36;73.68
8101;BME280;4093;53.470;9.832;2022-08-11T03:01:06;102553.34;;;18.88;74.93
8101;BME280;4093;53.470;9.832;2022-08-11T03:03:48;102581.84;;;19.03;74.15
8101;BME280;4093;53.470;9.832;2022-08-11T03:06:26;102550.41;;;18.61;75.96
8101;BME280;4093;53.470;9.832;2022-08-11T03:09:01;102561.25;;;18.44;77.46
8101;BME280;4093;53.470;9.832;2022-08-11T03:11:49;102576.06;;;18.47;77.61
8101;BME280;4093;53.470;9.832;2022-08-11T03:14:45;102614.28;;;18.99;74.82
8101;BME280;4093;53.470;9.832;2022-08-11T03:17:35;102604.59;;;19.03;74.85
8101;BME280;4093;53.470;9.832;2022-08-11T03:20:14;102606.13;;;19.11;74.83
8101;BME280;4093;53.470;9.832;2022-08-11T03:22:51;102608.66;;;19.14;74.82
8101;BME280;4093;53.470;9.832;2022-08-11T03:25:29;102613.19;;;19.45;72.73
8101;BME280;4093;53.470;9.832;2022-08-11T03:28:03;102588.09;;;19.35;74.71
8101;BME280;4093;53.470;9.832;2022-08-11T03:30:41;102606.00;;;19.53;73.65
8101;BME280;4093;53.470;9.832;2022-08-11T03:33:18;102614.94;;;19.82;71.29
8101;BME280;4093;53.470;9.832;2022-08-11T03:36:11;102574.28;;;19.62;70.65
8101;BME280;4093;53.470;9.832;2022-08-11T03:38:50;102570.78;;;19.62;70.43
8101;BME280;4093;53.470;9.832;2022-08-11T03:41:25;102550.22;;;19.45;70.66
8101;BME280;4093;53.470;9.832;2022-08-11T03:44:22;102578.41;;;19.73;70.11
8101;BME280;4093;53.470;9.832;2022-08-11T03:50:06;102570.38;;;19.79;69.76
8101;BME280;4093;53.470;9.832;2022-08-11T03:52:52;102539.56;;;19.51;71.45
8101;BME280;4093;53.470;9.832;2022-08-11T03:55:32;102522.09;;;19.16;72.90
8101;BME280;4093;53.470;9.832;2022-08-11T03:58:36;102530.75;;;19.19;72.91
8101;BME280;4093;53.470;9.832;2022-08-11T04:01:37;102561.94;;;19.32;71.54
8101;BME280;4093;53.470;9.832;2022-08-11T04:07:37;102564.50;;;19.69;69.96
8101;BME280;4093;53.470;9.832;2022-08-11T04:10:49;102562.88;;;19.65;70.31
8101;BME280;4093;53.470;9.832;2022-08-11T04:13:48;102553.38;;;19.59;70.04
8101;BME280;4093;53.470;9.832;2022-08-11T04:16:40;102553.28;;;19.62;70.14
8101;BME280;4093;53.470;9.832;2022-08-11T04:19:28;102549.81;;;19.60;70.11
8101;BME280;4093;53.470;9.832;2022-08-11T04:22:26;102561.97;;;19.66;69.57
8101;BME280;4093;53.470;9.832;2022-08-11T04:25:19;102534.78;;;19.33;71.83
8101;BME280;4093;53.470;9.832;2022-08-11T04:28:11;102553.91;;;19.38;71.58
8101;BME280;4093;53.470;9.832;2022-08-11T04:31:07;102563.25;;;19.50;71.36
8101;BME280;4093;53.470;9.832;2022-08-11T04:33:58;102574.25;;;19.64;71.67
8101;BME280;4093;53.470;9.832;2022-08-11T04:36:52;102569.00;;;19.64;70.92
8101;BME280;4093;53.470;9.832;2022-08-11T04:40:01;102561.13;;;19.64;70.96
8101;BME280;4093;53.470;9.832;2022-08-11T04:43:00;102550.91;;;19.53;71.72
8101;BME280;4093;53.470;9.832;2022-08-11T04:46:13;102572.31;;;19.71;71.42
8101;BME280;4093;53.470;9.832;2022-08-11T04:56:02;102560.28;;;19.28;73.21
8101;BME280;4093;53.470;9.832;2022-08-11T04:59:00;102539.19;;;18.97;74.71
8101;BME280;4093;53.470;9.832;2022-08-11T05:02:11;102514.44;;;18.29;76.87
8101;BME280;4093;53.470;9.832;2022-08-11T05:04:54;102535.97;;;18.43;75.95
8101;BME280;4093;53.470;9.832;2022-08-11T05:08:09;102572.88;;;18.75;75.00
8101;BME280;4093;53.470;9.832;2022-08-11T05:10:50;102665.00;;;21.60;67.60
8101;BME280;4093;53.470;9.832;2022-08-11T05:13:27;102557.16;;;24.22;57.07
8101;BME280;4093;53.470;9.832;2022-08-11T05:16:16;102538.88;;;26.92;49.91
8101;BME280;4093;53.470;9.832;2022-08-11T05:19:01;102487.88;;;28.18;46.58
8101;BME280;4093;53.470;9.832;2022-08-11T05:21:52;102489.13;;;28.80;45.55
8101;BME280;4093;53.470;9.832;2022-08-11T05:24:40;102484.63;;;29.59;43.97
8101;BME280;4093;53.470;9.832;2022-08-11T05:27:48;102480.59;;;30.53;42.80
8101;BME280;4093;53.470;9.832;2022-08-11T05:30:37;102454.06;;;30.98;42.31
8101;BME280;4093;53.470;9.832;2022-08-11T05:33:30;102455.09;;;31.75;40.41
8101;BME280;4093;53.470;9.832;2022-08-11T05:36:20;102421.66;;;31.81;40.93
8101;BME280;4093;53.470;9.832;2022-08-11T05:38:56;102415.19;;;32.06;40.43
8101;BME280;4093;53.470;9.832;2022-08-11T05:41:41;102413.50;;;31.71;41.46
8101;BME280;4093;53.470;9.832;2022-08-11T05:44:26;102416.19;;;32.26;41.50
8101;BME280;4093;53.470;9.832;2022-08-11T05:47:21;102410.84;;;32.15;41.70
8101;BME280;4093;53.470;9.832;2022-08-11T05:50:08;102402.06;;;33.19;39.86
8101;BME280;4093;53.470;9.832;2022-08-11T05:52:54;102413.28;;;35.38;36.75
8101;BME280;4093;53.470;9.832;2022-08-11T05:55:40;102403.25;;;35.67;37.00
8101;BME280;4093;53.470;9.832;2022-08-11T05:58:25;102380.03;;;35.39;37.61
8101;BME280;4093;53.470;9.832;2022-08-11T06:00:57;102395.09;;;36.05;37.36
8101;BME280;4093;53.470;9.832;2022-08-11T06:03:28;102382.09;;;37.14;35.17
8101;BME280;4093;53.470;9.832;2022-08-11T06:05:55;102386.00;;;36.24;36.05
8101;BME280;4093;53.470;9.832;2022-08-11T06:08:27;102389.97;;;36.20;35.94
8101;BME280;4093;53.470;9.832;2022-08-11T06:10:59;102390.69;;;37.60;34.72
8101;BME280;4093;53.470;9.832;2022-08-11T06:13:26;102372.78;;;34.06;37.98
8101;BME280;4093;53.470;9.832;2022-08-11T06:15:53;102383.16;;;33.61;39.21
8101;BME280;4093;53.470;9.832;2022-08-11T06:18:21;102349.72;;;33.34;38.70
8101;BME280;4093;53.470;9.832;2022-08-11T06:20:52;102378.47;;;32.71;39.90
8101;BME280;4093;53.470;9.832;2022-08-11T06:23:20;102369.66;;;33.92;38.45
8101;BME280;4093;53.470;9.832;2022-08-11T06:25:49;102389.03;;;36.29;35.18
8101;BME280;4093;53.470;9.832;2022-08-11T06:28:17;102380.22;;;37.49;33.27
8101;BME280;4093;53.470;9.832;2022-08-11T06:30:47;102370.88;;;33.78;37.42
8101;BME280;4093;53.470;9.832;2022-08-11T06:33:15;102373.31;;;33.91;36.89
8101;BME280;4093;53.470;9.832;2022-08-11T06:35:53;102363.97;;;30.76;42.35
8101;BME280;4093;53.470;9.832;2022-08-11T06:38:37;102374.00;;;31.30;42.17
8101;BME280;4093;53.470;9.832;2022-08-11T06:41:12;102371.72;;;31.48;41.60
8101;BME280;4093;53.470;9.832;2022-08-11T06:44:01;102381.69;;;35.03;36.58
8101;BME280;4093;53.470;9.832;2022-08-11T06:46:34;102362.31;;;34.03;37.35
8101;BME280;4093;53.470;9.832;2022-08-11T06:49:04;102358.22;;;34.09;37.14
8101;BME280;4093;53.470;9.832;2022-08-11T06:51:53;102365.09;;;35.90;34.27
8101;BME280;4093;53.470;9.832;2022-08-11T06:54:21;102364.56;;;33.38;39.12
8101;BME280;4093;53.470;9.832;2022-08-11T06:56:49;102370.63;;;32.79;39.51
8101;BME280;4093;53.470;9.832;2022-08-11T06:59:33;102361.56;;;35.72;34.58
8101;BME280;4093;53.470;9.832;2022-08-11T07:02:21;102365.88;;;36.00;34.86
8101;BME280;4093;53.470;9.832;2022-08-11T07:04:54;102356.97;;;32.08;39.67
8101;BME280;4093;53.470;9.832;2022-08-11T07:07:44;102372.69;;;32.97;39.65
8101;BME280;4093;53.470;9.832;2022-08-11T07:10:48;102366.97;;;35.89;34.50
8101;BME280;4093;53.470;9.832;2022-08-11T07:13:38;102345.19;;;34.43;36.59
8101;BME280;4093;53.470;9.832;2022-08-11T07:16:27;102357.72;;;36.28;33.73
8101;BME280;4093;53.470;9.832;2022-08-11T07:18:58;102355.88;;;37.07;33.55
8101;BME280;4093;53.470;9.832;2022-08-11T07:21:45;102364.38;;;39.32;29.61
8101;BME280;4093;53.470;9.832;2022-08-11T07:24:33;102351.72;;;38.69;30.84
8101;BME280;4093;53.470;9.832;2022-08-11T07:27:20;102371.22;;;40.06;29.73
8101;BME280;4093;53.470;9.832;2022-08-11T07:30:09;102358.31;;;37.85;31.41
8101;BME280;4093;53.470;9.832;2022-08-11T07:32:40;102351.09;;;35.68;34.15
8101;BME280;4093;53.470;9.832;2022-08-11T07:35:11;102368.13;;;37.35;32.51
8101;BME280;4093;53.470;9.832;2022-08-11T07:37:40;102383.72;;;39.21;30.10
8101;BME280;4093;53.470;9.832;2022-08-11T07:40:10;102370.06;;;39.06;30.14
8101;BME280;4093;53.470;9.832;2022-08-11T07:42:37;102369.22;;;41.99;28.64
8101;BME280;4093;53.470;9.832;2022-08-11T07:45:07;102362.50;;;41.95;28.48
8101;BME280;4093;53.470;9.832;2022-08-11T07:47:53;102350.00;;;35.97;35.43
8101;BME280;4093;53.470;9.832;2022-08-11T07:50:40;102364.09;;;35.91;36.17
8101;BME280;4093;53.470;9.832;2022-08-11T07:53:25;102355.41;;;35.61;36.28
8101;BME280;4093;53.470;9.832;2022-08-11T07:55:55;102376.06;;;38.69;32.51
8101;BME280;4093;53.470;9.832;2022-08-11T07:58:24;102381.03;;;41.12;29.98
8101;BME280;4093;53.470;9.832;2022-08-11T08:01:10;102364.22;;;38.70;32.29
8101;BME280;4093;53.470;9.832;2022-08-11T08:03:55;102377.88;;;39.95;30.92
8101;BME280;4093;53.470;9.832;2022-08-11T08:06:42;102357.91;;;41.95;28.20
8101;BME280;4093;53.470;9.832;2022-08-11T08:09:27;102352.44;;;38.14;31.41
8101;BME280;4093;53.470;9.832;2022-08-11T08:12:13;102371.72;;;39.16;31.57
8101;BME280;4093;53.470;9.832;2022-08-11T08:15:00;102345.88;;;38.08;31.76
8101;BME280;4093;53.470;9.832;2022-08-11T08:17:49;102358.53;;;36.46;34.50
8101;BME280;4093;53.470;9.832;2022-08-11T08:20:18;102373.78;;;39.99;30.42
8101;BME280;4093;53.470;9.832;2022-08-11T08:22:47;102367.22;;;40.99;29.08
8101;BME280;4093;53.470;9.832;2022-08-11T08:25:17;102377.47;;;40.06;31.74
8101;BME280;4093;53.470;9.832;2022-08-11T08:27:46;102365.31;;;40.40;30.12
8101;BME280;4093;53.470;9.832;2022-08-11T08:30:15;102350.94;;;38.03;32.08
8101;BME280;4093;53.470;9.832;2022-08-11T08:33:00;102366.47;;;38.09;31.61
8101;BME280;4093;53.470;9.832;2022-08-11T08:35:28;102354.81;;;37.34;32.84
8101;BME280;4093;53.470;9.832;2022-08-11T08:37:56;102377.00;;;40.55;30.93
8101;BME280;4093;53.470;9.832;2022-08-11T08:40:24;102364.81;;;39.05;31.39
8101;BME280;4093;53.470;9.832;2022-08-11T08:42:55;102357.28;;;39.86;30.59
8101;BME280;4093;53.470;9.832;2022-08-11T08:45:23;102356.78;;;38.64;30.83
8101;BME280;4093;53.470;9.832;2022-08-11T08:47:56;102354.66;;;39.46;30.27
8101;BME280;4093;53.470;9.832;2022-08-11T08:50:26;102349.69;;;36.88;32.44
8101;BME280;4093;53.470;9.832;2022-08-11T08:53:16;102354.34;;;35.90;33.78
8101;BME280;4093;53.470;9.832;2022-08-11T08:55:46;102342.91;;;33.21;37.00
8101;BME280;4093;53.470;9.832;2022-08-11T08:58:18;102349.97;;;33.31;38.90
8101;BME280;4093;53.470;9.832;2022-08-11T09:00:49;102360.25;;;35.58;35.79
8101;BME280;4093;53.470;9.832;2022-08-11T09:03:16;102340.44;;;34.84;35.10
8101;BME280;4093;53.470;9.832;2022-08-11T09:05:44;102343.97;;;37.68;32.52
8101;BME280;4093;53.470;9.832;2022-08-11T09:08:12;102343.09;;;35.95;33.83
8101;BME280;4093;53.470;9.832;2022-08-11T09:10:39;102345.47;;;34.01;36.96
8101;BME280;4093;53.470;9.832;2022-08-11T09:13:06;102341.75;;;35.17;33.86
8101;BME280;4093;53.470;9.832;2022-08-11T09:15:34;102350.53;;;36.36;33.20
8101;BME280;4093;53.470;9.832;2022-08-11T09:18:02;102331.50;;;36.38;31.86
8101;BME280;4093;53.470;9.832;2022-08-11T09:20:35;102345.19;;;36.63;32.80
8101;BME280;4093;53.470;9.832;2022-08-11T09:23:05;102339.00;;;35.90;33.07
8101;BME280;4093;53.470;9.832;2022-08-11T09:25:52;102303.31;;;32.10;37.46
8101;BME280;4093;53.470;9.832;2022-08-11T09:28:41;102331.16;;;32.81;35.85
8101;BME280;4093;53.470;9.832;2022-08-11T09:31:10;102325.16;;;33.29;35.91
8101;BME280;4093;53.470;9.832;2022-08-11T09:33:39;102336.72;;;32.15;39.04
8101;BME280;4093;53.470;9.832;2022-08-11T09:36:07;102321.72;;;31.60;38.61
8101;BME280;4093;53.470;9.832;2022-08-11T09:38:49;102326.75;;;31.85;39.19
8101;BME280;4093;53.470;9.832;2022-08-11T09:41:34;102327.00;;;30.12;41.16
8101;BME280;4093;53.470;9.832;2022-08-11T09:44:02;102321.09;;;29.71;39.96
8101;BME280;4093;53.470;9.832;2022-08-11T09:46:48;102327.56;;;30.28;39.68
8101;BME280;4093;53.470;9.832;2022-08-11T09:49:18;102319.66;;;30.27;40.05
8101;BME280;4093;53.470;9.832;2022-08-11T09:51:46;102324.16;;;31.63;38.06
8101;BME280;4093;53.470;9.832;2022-08-11T09:54:15;102306.50;;;30.70;39.17
8101;BME280;4093;53.470;9.832;2022-08-11T09:56:42;102309.88;;;30.14;40.27
8101;BME280;4093;53.470;9.832;2022-08-11T09:59:26;102310.03;;;31.49;38.47
8101;BME280;4093;53.470;9.832;2022-08-11T10:01:57;102310.88;;;31.61;38.23
8101;BME280;4093;53.470;9.832;2022-08-11T10:04:26;102306.88;;;31.99;38.01
8101;BME280;4093;53.470;9.832;2022-08-11T10:07:01;102300.00;;;30.97;39.35
8101;BME280;4093;53.470;9.832;2022-08-11T10:09:28;102294.50;;;31.43;37.82
8101;BME280;4093;53.470;9.832;2022-08-11T10:12:01;102285.50;;;31.88;38.73
8101;BME280;4093;53.470;9.832;2022-08-11T10:14:30;102258.47;;;31.58;38.07
8101;BME280;4093;53.470;9.832;2022-08-11T10:17:18;102282.09;;;31.97;36.54
8101;BME280;4093;53.470;9.832;2022-08-11T10:19:47;102278.00;;;31.38;38.42
8101;BME280;4093;53.470;9.832;2022-08-11T10:22:15;102280.00;;;31.57;37.71
8101;BME280;4093;53.470;9.832;2022-08-11T10:25:01;102285.28;;;31.14;37.30
8101;BME280;4093;53.470;9.832;2022-08-11T10:27:46;102280.63;;;31.49;36.16
8101;BME280;4093;53.470;9.832;2022-08-11T10:30:14;102256.13;;;29.36;38.21
8101;BME280;4093;53.470;9.832;2022-08-11T10:33:05;102269.75;;;30.85;38.54
8101;BME280;4093;53.470;9.832;2022-08-11T10:35:49;102283.00;;;31.09;38.60
8101;BME280;4093;53.470;9.832;2022-08-11T10:38:17;102248.09;;;31.22;39.05
8101;BME280;4093;53.470;9.832;2022-08-11T10:40:45;102257.63;;;31.90;36.81
8101;BME280;4093;53.470;9.832;2022-08-11T10:43:33;102271.63;;;30.49;38.63
8101;BME280;4093;53.470;9.832;2022-08-11T10:45:59;102266.09;;;30.75;36.16
8101;BME280;4093;53.470;9.832;2022-08-11T10:48:44;102254.84;;;31.80;36.39
8101;BME280;4093;53.470;9.832;2022-08-11T10:51:12;102272.03;;;32.31;35.89
8101;BME280;4093;53.470;9.832;2022-08-11T10:53:41;102256.00;;;31.67;36.75
8101;BME280;4093;53.470;9.832;2022-08-11T10:56:28;102255.97;;;31.46;37.19
8101;BME280;4093;53.470;9.832;2022-08-11T10:59:13;102254.69;;;31.61;36.54
8101;BME280;4093;53.470;9.832;2022-08-11T11:01:42;102251.63;;;31.33;37.55
8101;BME280;4093;53.470;9.832;2022-08-11T11:04:14;102254.59;;;31.51;37.54
8101;BME280;4093;53.470;9.832;2022-08-11T11:06:50;102240.66;;;32.64;35.86
8101;BME280;4093;53.470;9.832;2022-08-11T11:09:24;102244.84;;;32.57;35.61
8101;BME280;4093;53.470;9.832;2022-08-11T11:11:58;102239.75;;;32.12;36.40
8101;BME280;4093;53.470;9.832;2022-08-11T11:14:43;102238.31;;;32.80;34.76
8101;BME280;4093;53.470;9.832;2022-08-11T11:17:30;102201.25;;;32.03;36.42
8101;BME280;4093;53.470;9.832;2022-08-11T11:20:20;102247.75;;;30.93;36.37
8101;BME280;4093;53.470;9.832;2022-08-11T11:22:50;102233.06;;;30.76;35.84
8101;BME280;4093;53.470;9.832;2022-08-11T11:25:34;102229.56;;;30.17;36.39
8101;BME280;4093;53.470;9.832;2022-08-11T11:28:23;102205.84;;;30.48;36.08
8101;BME280;4093;53.470;9.832;2022-08-11T11:31:05;102239.06;;;32.10;34.58
8101;BME280;4093;53.470;9.832;2022-08-11T11:33:47;102235.94;;;31.29;35.58
8101;BME280;4093;53.470;9.832;2022-08-11T11:36:27;102247.00;;;31.36;34.74
8101;BME280;4093;53.470;9.832;2022-08-11T11:38:54;102240.00;;;31.01;36.52
8101;BME280;4093;53.470;9.832;2022-08-11T11:41:22;102244.00;;;32.35;35.73
8101;BME280;4093;53.470;9.832;2022-08-11T11:43:53;102234.34;;;31.70;35.73
8101;BME280;4093;53.470;9.832;2022-08-11T11:46:20;102235.25;;;30.93;36.92
8101;BME280;4093;53.470;9.832;2022-08-11T11:48:48;102200.50;;;31.04;35.93
8101;BME280;4093;53.470;9.832;2022-08-11T11:51:18;102233.31;;;30.73;36.85
8101;BME280;4093;53.470;9.832;2022-08-11T11:53:47;102233.09;;;32.27;35.84
8101;BME280;4093;53.470;9.832;2022-08-11T11:56:14;102240.47;;;32.35;35.46
8101;BME280;4093;53.470;9.832;2022-08-11T11:58:42;102237.28;;;31.99;35.89
8101;BME280;4093;53.470;9.832;2022-08-11T12:01:26;102204.19;;;30.81;36.71
8101;BME280;4093;53.470;9.832;2022-08-11T12:03:55;102232.00;;;32.51;35.86
8101;BME280;4093;53.470;9.832;2022-08-11T12:06:23;102225.69;;;32.40;35.19
8101;BME280;4093;53.470;9.832;2022-08-11T12:08:54;102218.22;;;32.34;35.36
8101;BME280;4093;53.470;9.832;2022-08-11T12:11:24;102205.19;;;31.23;35.74
8101;BME280;4093;53.470;9.832;2022-08-11T12:14:10;102219.81;;;31.84;35.38
8101;BME280;4093;53.470;9.832;2022-08-11T12:16:39;102213.38;;;30.54;36.07
8101;BME280;4093;53.470;9.832;2022-08-11T12:19:08;102230.19;;;30.90;36.13
8101;BME280;4093;53.470;9.832;2022-08-11T12:21:36;102211.09;;;30.83;36.29
8101;BME280;4093;53.470;9.832;2022-08-11T12:24:25;102217.22;;;32.14;34.84
8101;BME280;4093;53.470;9.832;2022-08-11T12:27:11;102214.66;;;32.03;34.90
8101;BME280;4093;53.470;9.832;2022-08-11T12:29:49;102211.13;;;32.94;34.90
8101;BME280;4093;53.470;9.832;2022-08-11T12:32:19;102195.56;;;33.38;33.57
8101;BME280;4093;53.470;9.832;2022-08-11T12:34:47;102197.69;;;32.75;34.11
8101;BME280;4093;53.470;9.832;2022-08-11T12:37:15;102200.19;;;31.41;36.13
8101;BME280;4093;53.470;9.832;2022-08-11T12:39:50;102201.44;;;32.42;34.46
8101;BME280;4093;53.470;9.832;2022-08-11T12:42:36;102191.88;;;32.70;34.03
8101;BME280;4093;53.470;9.832;2022-08-11T12:45:24;102182.19;;;32.88;34.23
8101;BME280;4093;53.470;9.832;2022-08-11T12:48:02;102182.31;;;32.46;34.28
8101;BME280;4093;53.470;9.832;2022-08-11T12:50:50;102187.09;;;32.83;33.49
8101;BME280;4093;53.470;9.832;2022-08-11T12:53:38;102166.38;;;31.72;34.11
8101;BME280;4093;53.470;9.832;2022-08-11T12:56:09;102171.50;;;30.77;35.69
8101;BME280;4093;53.470;9.832;2022-08-11T12:58:55;102168.47;;;31.90;33.52
8101;BME280;4093;53.470;9.832;2022-08-11T13:01:40;102167.00;;;31.44;33.95
8101;BME280;4093;53.470;9.832;2022-08-11T13:04:25;102154.03;;;32.33;32.92
8101;BME280;4093;53.470;9.832;2022-08-11T13:07:11;102153.06;;;32.03;32.99
8101;BME280;4093;53.470;9.832;2022-08-11T13:09:39;102167.47;;;32.73;33.02
8101;BME280;4093;53.470;9.832;2022-08-11T13:12:08;102151.03;;;32.47;33.41
8101;BME280;4093;53.470;9.832;2022-08-11T13:14:53;102145.09;;;31.92;33.48
8101;BME280;4093;53.470;9.832;2022-08-11T13:17:21;102140.63;;;32.54;32.77
8101;BME280;4093;53.470;9.832;2022-08-11T13:19:49;102140.94;;;31.46;33.53
8101;BME280;4093;53.470;9.832;2022-08-11T13:22:19;102151.63;;;32.51;32.89
8101;BME280;4093;53.470;9.832;2022-08-11T13:24:48;102142.28;;;32.45;32.83
8101;BME280;4093;53.470;9.832;2022-08-11T13:27:17;102137.16;;;32.42;33.92
8101;BME280;4093;53.470;9.832;2022-08-11T13:29:45;102141.22;;;32.67;32.47
8101;BME280;4093;53.470;9.832;2022-08-11T13:32:13;102118.03;;;33.35;31.75
8101;BME280;4093;53.470;9.832;2022-08-11T13:34:42;102135.75;;;34.04;31.32
8101;BME280;4093;53.470;9.832;2022-08-11T13:37:09;102119.97;;;32.94;32.28
8101;BME280;4093;53.470;9.832;2022-08-11T13:39:39;102125.16;;;32.77;32.96
8101;BME280;4093;53.470;9.832;2022-08-11T13:42:08;102133.41;;;33.24;31.16
8101;BME280;4093;53.470;9.832;2022-08-11T13:44:37;102123.72;;;32.63;32.36
8101;BME280;4093;53.470;9.832;2022-08-11T13:47:06;102119.44;;;33.01;31.36
8101;BME280;4093;53.470;9.832;2022-08-11T13:49:35;102122.41;;;33.07;31.80
8101;BME280;4093;53.470;9.832;2022-08-11T13:52:03;102116.59;;;32.42;31.59
8101;BME280;4093;53.470;9.832;2022-08-11T13:54:32;102115.03;;;32.90;31.77
8101;BME280;4093;53.470;9.832;2022-08-11T13:57:03;102098.38;;;32.86;30.91
8101;BME280;4093;53.470;9.832;2022-08-11T13:59:30;102111.13;;;33.23;31.49
8101;BME280;4093;53.470;9.832;2022-08-11T14:02:00;102101.25;;;33.14;30.89
8101;BME280;4093;53.470;9.832;2022-08-11T14:04:31;102100.97;;;33.17;31.29
8101;BME280;4093;53.470;9.832;2022-08-11T14:07:02;102111.69;;;33.27;31.49
8101;BME280;4093;53.470;9.832;2022-08-11T14:09:33;102095.22;;;32.62;32.56
8101;BME280;4093;53.470;9.832;2022-08-11T14:12:07;102090.34;;;32.96;32.03
8101;BME280;4093;53.470;9.832;2022-08-11T14:14:58;102083.78;;;32.10;31.77
8101;BME280;4093;53.470;9.832;2022-08-11T14:17:29;102090.53;;;33.04;31.35
8101;BME280;4093;53.470;9.832;2022-08-11T14:19:57;102081.44;;;32.76;30.93
8101;BME280;4093;53.470;9.832;2022-08-11T14:22:27;102091.91;;;33.47;30.16
8101;BME280;4093;53.470;9.832;2022-08-11T14:24:54;102071.31;;;33.09;31.39
8101;BME280;4093;53.470;9.832;2022-08-11T14:27:22;102087.09;;;32.92;30.83
8101;BME280;4093;53.470;9.832;2022-08-11T14:29:56;102078.38;;;32.00;31.89
8101;BME280;4093;53.470;9.832;2022-08-11T14:32:23;102095.44;;;32.99;31.19
8101;BME280;4093;53.470;9.832;2022-08-11T14:34:52;102086.84;;;33.54;30.22
8101;BME280;4093;53.470;9.832;2022-08-11T14:37:21;102064.13;;;33.00;31.03
8101;BME280;4093;53.470;9.832;2022-08-11T14:39:51;102075.97;;;33.36;30.94